Time;durP1;ratioP1;P1;durP2;ratioP2;P2;SDS_P1;SDS_P2;PMS_P1;PMS_P2;Temp;Humidity;BMP_temperature;BMP_pressure;BME280_temperature;BME280_humidity;BME280_pressure;Samples;Min_cycle;Max_cycle;Signal;HPM_P1;HPM_P2
2023/01/09 00:00:28;;;;;;;22.45;13.95;;;4.70;99.90;;;;;;5092105;28;20024;-58
2023/01/09 00:02:53;;;;;;;22.00;13.13;;;4.70;99.90;;;;;;5089176;28;20496;-57
2023/01/09 00:05:20;;;;;;;22.85;13.45;;;4.60;99.90;;;;;;5092607;28;20020;-55
2023/01/09 00:07:45;;;;;;;25.70;13.85;;;4.60;99.90;;;;;;5088757;28;20028;-55
2023/01/09 00:10:11;;;;;;;23.63;13.07;;;4.60;99.90;;;;;;5091651;28;20061;-58
2023/01/09 00:12:37;;;;;;;22.92;12.98;;;4.50;99.90;;;;;;5088798;28;20121;-56
2023/01/09 00:15:03;;;;;;;20.13;12.25;;;4.50;99.90;;;;;;5092651;28;20062;-56
2023/01/09 00:17:29;;;;;;;19.52;11.98;;;4.50;99.90;;;;;;5089966;28;20020;-54
2023/01/09 00:19:54;;;;;;;21.95;12.38;;;4.50;99.90;;;;;;5090917;28;20063;-54
2023/01/09 00:22:20;;;;;;;21.63;12.48;;;4.40;99.90;;;;;;5090838;28;20020;-54
2023/01/09 00:24:45;;;;;;;19.85;10.52;;;4.40;99.90;;;;;;5090755;28;20036;-57
2023/01/09 00:27:13;;;;;;;18.55;12.18;;;4.40;99.90;;;;;;5089522;28;20091;-57
2023/01/09 00:29:40;;;;;;;20.27;11.63;;;4.40;99.90;;;;;;5090234;28;20044;-56
2023/01/09 00:32:08;;;;;;;23.10;13.20;;;4.40;99.90;;;;;;5089870;28;20085;-57
2023/01/09 00:34:36;;;;;;;17.60;11.10;;;4.30;99.90;;;;;;5090807;28;20077;-53
2023/01/09 00:37:02;;;;;;;18.20;12.05;;;4.30;99.90;;;;;;5090996;28;20024;-56
2023/01/09 00:39:27;;;;;;;19.15;12.23;;;4.30;99.90;;;;;;5091461;28;20128;-56
2023/01/09 00:41:54;;;;;;;18.05;11.48;;;4.30;99.90;;;;;;5088523;28;20028;-55
2023/01/09 00:44:25;;;;;;;23.48;14.55;;;4.30;99.90;;;;;;5108850;28;20039;-55
2023/01/09 00:46:58;;;;;;;21.63;12.60;;;4.30;99.90;;;;;;5078264;28;20499;-55
2023/01/09 00:49:24;;;;;;;18.95;11.68;;;4.20;99.90;;;;;;5069911;28;20036;-57
2023/01/09 00:51:52;;;;;;;19.45;12.32;;;4.20;99.90;;;;;;5096685;28;20032;-56
2023/01/09 00:54:19;;;;;;;20.17;11.90;;;4.20;99.90;;;;;;5110004;28;20475;-55
2023/01/09 00:56:45;;;;;;;19.80;11.80;;;4.20;99.90;;;;;;5092092;28;20007;-56
2023/01/09 00:59:10;;;;;;;21.88;12.93;;;4.20;99.90;;;;;;5094638;28;20085;-57
2023/01/09 01:01:36;;;;;;;18.90;11.48;;;4.20;99.90;;;;;;5097739;28;20044;-55
2023/01/09 01:07:37;;;;;;;23.08;13.18;;;4.10;99.90;;;;;;5109956;28;20088;-57
2023/01/09 01:09:30;;;;;;;20.45;11.77;;;4.10;99.90;;;;;;5069252;28;20063;-56
2023/01/09 01:11:56;;;;;;;20.83;12.73;;;4.00;99.90;;;;;;5094142;28;20458;-54
2023/01/09 01:14:21;;;;;;;23.15;14.15;;;4.00;99.90;;;;;;5109603;28;20063;-55
2023/01/09 01:16:47;;;;;;;29.70;15.80;;;4.00;99.90;;;;;;5088866;28;20039;-55
2023/01/09 01:19:12;;;;;;;21.88;13.43;;;3.90;99.90;;;;;;5109627;28;20058;-57
2023/01/09 01:21:38;;;;;;;20.73;13.05;;;3.90;99.90;;;;;;5099047;28;20034;-55
2023/01/09 01:24:03;;;;;;;21.38;13.82;;;3.90;99.90;;;;;;5090579;28;20081;-55
2023/01/09 01:26:30;;;;;;;21.80;13.48;;;3.80;99.90;;;;;;5098106;28;20480;-58
2023/01/09 01:28:57;;;;;;;24.65;14.82;;;3.80;99.90;;;;;;5109360;28;20048;-56
2023/01/09 01:31:23;;;;;;;26.60;15.98;;;3.80;99.90;;;;;;5087857;28;20035;-57
2023/01/09 01:33:48;;;;;;;26.98;15.77;;;3.80;99.90;;;;;;5108846;28;20510;-56
2023/01/09 01:36:16;;;;;;;27.65;16.00;;;3.80;99.90;;;;;;5088043;28;20057;-57
2023/01/09 01:38:42;;;;;;;27.08;16.58;;;3.80;99.90;;;;;;5089317;28;20036;-56
2023/01/09 01:41:08;;;;;;;26.65;16.13;;;3.80;99.90;;;;;;5107314;28;20141;-56
2023/01/09 01:43:57;;;;;;;26.48;16.13;;;3.80;99.90;;;;;;5109623;28;20130;-57
2023/01/09 01:46:23;;;;;;;27.67;16.10;;;3.80;99.90;;;;;;5084555;28;20094;-53
2023/01/09 01:49:03;;;;;;;25.38;14.75;;;3.80;99.90;;;;;;5089899;28;20039;-57
2023/01/09 01:51:35;;;;;;;24.20;14.93;;;3.80;99.90;;;;;;5086179;28;20046;-55
2023/01/09 01:54:05;;;;;;;25.63;15.85;;;3.80;99.90;;;;;;5069048;28;20500;-56
2023/01/09 01:56:42;;;;;;;25.73;15.43;;;3.80;99.90;;;;;;5107375;28;20024;-56
2023/01/09 01:59:08;;;;;;;26.75;14.45;;;3.70;99.90;;;;;;5069115;28;20031;-55
2023/01/09 02:01:37;;;;;;;25.70;15.68;;;3.70;99.90;;;;;;5106332;28;20424;-53
2023/01/09 02:04:03;;;;;;;25.00;14.13;;;3.70;99.90;;;;;;5089212;28;20412;-55
2023/01/09 02:06:29;;;;;;;22.15;13.52;;;3.70;99.90;;;;;;5099332;28;20084;-57
2023/01/09 02:08:55;;;;;;;25.25;14.35;;;3.60;99.90;;;;;;5089414;28;20705;-57
2023/01/09 02:11:21;;;;;;;22.35;12.60;;;3.60;99.90;;;;;;5106957;28;20168;-56
2023/01/09 02:13:47;;;;;;;19.23;12.32;;;3.60;99.90;;;;;;5089478;28;20119;-57
2023/01/09 02:16:46;;;;;;;21.58;11.95;;;3.50;99.90;;;;;;5106744;28;20152;-57
2023/01/09 02:19:40;;;;;;;22.48;11.55;;;3.50;99.90;;;;;;5037352;28;20040;-57
2023/01/09 02:22:18;;;;;;;25.25;14.13;;;3.40;99.90;;;;;;5107290;28;20233;-58
2023/01/09 02:25:03;;;;;;;21.55;12.73;;;3.40;99.90;;;;;;5068820;28;20035;-58
2023/01/09 02:27:47;;;;;;;25.55;13.30;;;3.40;99.90;;;;;;5086176;28;20104;-54
2023/01/09 02:30:43;;;;;;;24.67;14.48;;;3.30;99.90;;;;;;5109268;28;20085;-55
2023/01/09 02:33:34;;;;;;;25.42;14.85;;;3.30;99.90;;;;;;5109197;28;20043;-57
2023/01/09 02:36:10;;;;;;;26.25;14.15;;;3.30;99.90;;;;;;5077245;28;20542;-57
2023/01/09 02:38:54;;;;;;;30.02;16.05;;;3.30;99.90;;;;;;5109020;28;20120;-57
2023/01/09 02:41:52;;;;;;;23.02;14.60;;;3.30;99.90;;;;;;5074765;28;20027;-57
2023/01/09 02:44:27;;;;;;;28.40;15.75;;;3.30;99.90;;;;;;5055389;28;20435;-58
2023/01/09 02:47:19;;;;;;;24.67;13.15;;;3.30;99.90;;;;;;5086998;28;20040;-56
2023/01/09 02:49:52;;;;;;;24.02;14.07;;;3.30;99.90;;;;;;5076207;28;20032;-58
2023/01/09 02:52:35;;;;;;;26.10;14.75;;;3.30;99.90;;;;;;5086551;28;20414;-54
2023/01/09 02:55:43;;;;;;;28.23;15.77;;;3.30;99.90;;;;;;5068664;28;20040;-58
2023/01/09 02:58:24;;;;;;;;;;;3.40;99.90;;;;;;5060012;28;20054;-54
2023/01/09 03:01:10;;;;;;;23.23;12.20;;;3.30;99.90;;;;;;5070499;28;20292;-58
2023/01/09 03:03:54;;;;;;;28.20;15.00;;;3.30;99.90;;;;;;5088390;28;20123;-58
2023/01/09 03:06:29;;;;;;;20.00;12.13;;;3.30;99.90;;;;;;5094135;28;20055;-59
2023/01/09 03:09:00;;;;;;;24.15;13.35;;;3.30;99.90;;;;;;5068261;28;20040;-58
2023/01/09 03:11:30;;;;;;;27.05;13.40;;;3.30;99.90;;;;;;5075221;28;20048;-57
2023/01/09 03:14:00;;;;;;;28.75;14.90;;;3.30;99.90;;;;;;5068399;28;20037;-59
2023/01/09 03:16:34;;;;;;;27.27;14.65;;;3.30;99.90;;;;;;5097950;28;20032;-55
2023/01/09 03:19:00;;;;;;;28.05;14.15;;;3.30;99.90;;;;;;5068252;28;20038;-55
2023/01/09 03:21:27;;;;;;;27.85;14.30;;;3.30;99.90;;;;;;5096795;28;20492;-52
2023/01/09 03:23:55;;;;;;;21.95;14.30;;;3.30;99.90;;;;;;5108143;28;20081;-54
2023/01/09 03:26:22;;;;;;;23.38;13.82;;;3.30;99.90;;;;;;5086546;28;20484;-55
2023/01/09 03:28:48;;;;;;;25.58;14.27;;;3.30;99.90;;;;;;5106711;28;20139;-53
2023/01/09 03:31:14;;;;;;;25.77;13.65;;;3.30;99.90;;;;;;5086635;28;20075;-53
2023/01/09 03:33:40;;;;;;;23.60;13.75;;;3.30;99.90;;;;;;5090033;28;20383;-50
2023/01/09 03:36:06;;;;;;;29.35;15.93;;;3.30;99.90;;;;;;5103446;28;20040;-50
2023/01/09 03:38:32;;;;;;;27.50;14.55;;;3.30;99.90;;;;;;5091632;28;20048;-51
2023/01/09 03:40:58;;;;;;;24.15;13.90;;;3.30;99.90;;;;;;5109320;28;20059;-50
2023/01/09 03:43:23;;;;;;;25.55;14.43;;;3.30;99.90;;;;;;5112133;28;20023;-52
2023/01/09 03:45:49;;;;;;;24.10;13.05;;;3.40;99.90;;;;;;5094051;28;20020;-50
2023/01/09 03:48:14;;;;;;;25.58;15.00;;;3.40;99.90;;;;;;5111792;28;20046;-52
2023/01/09 03:50:44;;;;;;;23.50;13.88;;;3.50;99.90;;;;;;5092678;28;20027;-52
2023/01/09 03:53:11;;;;;;;27.02;14.95;;;3.50;99.90;;;;;;5111866;28;20027;-54
2023/01/09 03:55:37;;;;;;;26.35;15.50;;;3.60;99.90;;;;;;5091859;28;20027;-52
2023/01/09 03:58:03;;;;;;;25.48;14.90;;;3.60;99.90;;;;;;5111906;28;20612;-51
2023/01/09 04:00:28;;;;;;;30.77;17.38;;;3.70;99.90;;;;;;5090928;28;20271;-54
2023/01/09 04:02:54;;;;;;;27.98;16.55;;;3.70;99.90;;;;;;5111719;28;20081;-53
2023/01/09 04:05:19;;;;;;;30.75;18.20;;;3.80;99.90;;;;;;5095331;28;20399;-53
2023/01/09 04:07:45;;;;;;;27.85;16.48;;;3.90;99.90;;;;;;5089826;28;20102;-54
2023/01/09 04:10:10;;;;;;;24.35;15.27;;;3.90;99.90;;;;;;5110849;28;20088;-53
2023/01/09 04:12:36;;;;;;;29.20;16.27;;;4.00;99.90;;;;;;5089574;28;20046;-52
2023/01/09 04:15:02;;;;;;;27.15;15.15;;;4.00;99.90;;;;;;5110972;28;20399;-55
2023/01/09 04:17:27;;;;;;;23.63;14.00;;;4.10;99.90;;;;;;5089650;28;20032;-52
2023/01/09 04:19:53;;;;;;;21.42;13.48;;;4.10;99.90;;;;;;5110578;28;20034;-54
2023/01/09 04:22:18;;;;;;;24.52;13.68;;;4.20;99.90;;;;;;5089792;28;20081;-50
2023/01/09 04:24:44;;;;;;;25.70;13.63;;;4.20;99.90;;;;;;5110544;28;20454;-51
2023/01/09 04:27:11;;;;;;;27.25;14.95;;;4.20;99.90;;;;;;5089624;28;20035;-53
2023/01/09 04:29:36;;;;;;;24.48;14.57;;;4.30;99.90;;;;;;5110409;28;20050;-52
2023/01/09 04:32:02;;;;;;;19.10;12.52;;;4.40;99.90;;;;;;5089423;28;20032;-53
2023/01/09 04:34:27;;;;;;;25.08;14.68;;;4.40;99.90;;;;;;5110515;28;20035;-49
2023/01/09 04:36:53;;;;;;;27.67;14.55;;;4.40;99.90;;;;;;5089255;28;20107;-54
2023/01/09 04:39:19;;;;;;;22.98;13.63;;;4.50;99.90;;;;;;5110400;28;20118;-55
2023/01/09 04:41:48;;;;;;;23.48;13.63;;;4.50;99.90;;;;;;5089349;28;20036;-53
2023/01/09 04:44:26;;;;;;;22.15;12.90;;;4.50;99.90;;;;;;5109694;28;20051;-52
2023/01/09 04:46:53;;;;;;;22.00;13.32;;;4.50;99.90;;;;;;5080918;28;20036;-52
2023/01/09 04:49:20;;;;;;;24.38;14.93;;;4.60;99.90;;;;;;5110331;28;20024;-55
2023/01/09 04:51:46;;;;;;;24.50;14.30;;;4.60;99.90;;;;;;5086938;28;20672;-53
2023/01/09 04:54:11;;;;;;;25.20;15.02;;;4.60;99.90;;;;;;5090411;28;20086;-52
2023/01/09 04:56:37;;;;;;;22.13;13.30;;;4.60;99.90;;;;;;5088521;28;20093;-53
2023/01/09 04:59:04;;;;;;;19.77;12.18;;;4.60;99.90;;;;;;5090821;28;20032;-53
2023/01/09 05:01:29;;;;;;;19.85;12.43;;;4.70;99.90;;;;;;5108149;28;20039;-52
2023/01/09 05:03:55;;;;;;;17.63;10.98;;;4.70;99.90;;;;;;5090365;28;20016;-51
2023/01/09 05:06:20;;;;;;;24.55;13.40;;;4.80;99.90;;;;;;5106363;28;20027;-52
2023/01/09 05:08:46;;;;;;;23.77;12.25;;;4.70;99.90;;;;;;5089114;28;20392;-51
2023/01/09 05:11:11;;;;;;;20.70;12.40;;;4.80;99.90;;;;;;5109845;28;20032;-54
2023/01/09 05:13:37;;;;;;;21.52;12.73;;;4.80;99.90;;;;;;5088883;28;20085;-48
2023/01/09 05:16:02;;;;;;;21.45;11.82;;;4.80;99.90;;;;;;5109942;28;20029;-53
2023/01/09 05:18:28;;;;;;;21.52;12.07;;;4.90;99.90;;;;;;5088881;28;20024;-53
2023/01/09 05:20:53;;;;;;;22.42;13.00;;;4.80;99.90;;;;;;5109543;28;20444;-52
2023/01/09 05:23:19;;;;;;;20.70;11.90;;;4.90;99.90;;;;;;5088784;28;20032;-54
2023/01/09 05:25:44;;;;;;;21.25;12.52;;;4.90;99.90;;;;;;5109668;28;20039;-50
2023/01/09 05:28:09;;;;;;;20.95;13.10;;;4.90;99.90;;;;;;5095904;28;20104;-52
2023/01/09 05:30:35;;;;;;;22.30;12.95;;;4.90;99.90;;;;;;5079776;28;20063;-51
2023/01/09 05:33:01;;;;;;;19.48;12.18;;;4.90;99.90;;;;;;5089684;28;20032;-54
2023/01/09 05:35:26;;;;;;;22.02;13.55;;;4.90;99.90;;;;;;5097052;28;20081;-52
2023/01/09 05:37:52;;;;;;;23.90;13.60;;;5.00;99.90;;;;;;5088410;28;20024;-52
2023/01/09 05:40:17;;;;;;;20.38;12.75;;;5.00;99.90;;;;;;5109390;28;20031;-56
2023/01/09 05:42:43;;;;;;;21.55;13.13;;;5.10;99.90;;;;;;5094323;28;20555;-52
2023/01/09 05:45:09;;;;;;;19.42;12.40;;;5.10;99.90;;;;;;5110073;28;20053;-56
2023/01/09 05:47:35;;;;;;;18.00;11.80;;;5.10;99.90;;;;;;5087924;28;20031;-50
2023/01/09 05:50:01;;;;;;;19.85;12.93;;;5.20;99.90;;;;;;5109381;28;20035;-49
2023/01/09 05:52:26;;;;;;;18.98;12.00;;;5.20;99.90;;;;;;5086191;28;20047;-56
2023/01/09 05:54:52;;;;;;;19.65;12.77;;;5.20;99.90;;;;;;5089349;28;20113;-52
2023/01/09 05:57:17;;;;;;;23.27;12.65;;;5.30;99.90;;;;;;5087133;28;20028;-55
2023/01/09 05:59:43;;;;;;;20.65;13.10;;;5.30;99.90;;;;;;5089533;28;20512;-53
2023/01/09 06:02:08;;;;;;;23.85;13.10;;;5.30;99.90;;;;;;5106743;28;20027;-51
2023/01/09 06:04:34;;;;;;;21.85;12.77;;;5.30;99.90;;;;;;5089600;28;20388;-50
2023/01/09 06:06:59;;;;;;;20.30;12.38;;;5.30;99.90;;;;;;5088584;28;20029;-54
2023/01/09 06:09:25;;;;;;;19.55;12.52;;;5.30;99.90;;;;;;5078918;28;20703;-51
2023/01/09 06:11:53;;;;;;;24.02;13.20;;;5.30;99.90;;;;;;5101404;28;20120;-54
2023/01/09 06:14:19;;;;;;;23.45;12.32;;;5.30;99.90;;;;;;5088995;28;20020;-55
2023/01/09 06:16:44;;;;;;;22.58;13.10;;;5.30;99.90;;;;;;5103290;28;20031;-51
2023/01/09 06:19:10;;;;;;;23.58;13.85;;;5.30;99.90;;;;;;5087678;28;20036;-52
2023/01/09 06:21:35;;;;;;;21.67;12.85;;;5.30;99.90;;;;;;5106238;28;20031;-51
2023/01/09 06:24:00;;;;;;;18.48;11.88;;;5.30;99.90;;;;;;5109129;28;20106;-50
2023/01/09 06:26:26;;;;;;;20.30;12.00;;;5.30;99.90;;;;;;5088278;28;20047;-52
2023/01/09 06:28:54;;;;;;;22.38;12.75;;;5.30;99.90;;;;;;5108847;28;20078;-52
2023/01/09 06:31:20;;;;;;;24.45;12.45;;;5.30;99.90;;;;;;5086812;28;20036;-50
2023/01/09 06:33:46;;;;;;;19.83;12.10;;;5.30;99.90;;;;;;5108941;28;20069;-54
2023/01/09 06:36:11;;;;;;;20.17;12.50;;;5.30;99.90;;;;;;5089200;28;20459;-52
2023/01/09 06:38:37;;;;;;;20.13;11.77;;;5.30;99.90;;;;;;5085698;28;20411;-51
2023/01/09 06:41:03;;;;;;;24.55;14.18;;;5.40;99.90;;;;;;5108223;28;20031;-49
2023/01/09 06:43:28;;;;;;;24.42;13.02;;;5.30;99.90;;;;;;5087137;28;20141;-49
2023/01/09 06:45:53;;;;;;;20.30;12.35;;;5.30;99.90;;;;;;5108298;28;20387;-48
2023/01/09 06:48:19;;;;;;;23.30;12.98;;;5.40;99.90;;;;;;5087236;28;20418;-51
2023/01/09 06:50:47;;;;;;;23.52;13.05;;;5.40;99.90;;;;;;5108041;28;20081;-51
2023/01/09 06:53:12;;;;;;;22.27;12.70;;;5.40;99.90;;;;;;5087014;28;20392;-49
2023/01/09 06:55:38;;;;;;;22.75;13.00;;;5.40;99.90;;;;;;5108048;28;20035;-49
2023/01/09 06:58:03;;;;;;;22.95;14.38;;;5.40;99.90;;;;;;5087210;28;20067;-49
2023/01/09 07:00:30;;;;;;;20.75;12.75;;;5.40;99.90;;;;;;5107936;28;20077;-52
2023/01/09 07:02:55;;;;;;;23.58;13.50;;;5.40;99.90;;;;;;5086974;28;20027;-49
2023/01/09 07:05:21;;;;;;;25.30;14.35;;;5.40;99.90;;;;;;5095689;28;20389;-52
2023/01/09 07:07:46;;;;;;;25.08;14.13;;;5.40;99.90;;;;;;5094298;28;20429;-52
2023/01/09 07:10:12;;;;;;;23.60;12.95;;;5.40;99.90;;;;;;5112008;28;20036;-54
2023/01/09 07:12:38;;;;;;;20.67;12.18;;;5.40;99.90;;;;;;5090567;28;20042;-51
2023/01/09 07:15:04;;;;;;;25.38;13.77;;;5.40;99.90;;;;;;5112129;28;20042;-57
2023/01/09 07:17:31;;;;;;;22.08;11.95;;;5.50;99.90;;;;;;5090572;28;20055;-56
2023/01/09 07:19:57;;;;;;;22.10;12.40;;;5.50;99.90;;;;;;5110569;28;20415;-56
2023/01/09 07:22:22;;;;;;;22.30;13.68;;;5.50;99.90;;;;;;5090572;28;20039;-57
2023/01/09 07:24:48;;;;;;;19.83;11.80;;;5.50;99.90;;;;;;5111796;28;20039;-55
2023/01/09 07:27:13;;;;;;;24.88;12.82;;;5.50;99.90;;;;;;5090474;28;20020;-56
2023/01/09 07:29:39;;;;;;;22.58;13.48;;;5.60;99.90;;;;;;5091848;28;20705;-58
2023/01/09 07:32:04;;;;;;;25.83;15.25;;;5.60;99.90;;;;;;5103008;28;20063;-57
2023/01/09 07:34:30;;;;;;;23.20;13.55;;;5.60;99.90;;;;;;5091932;28;20099;-57
2023/01/09 07:36:55;;;;;;;24.40;13.75;;;5.60;99.90;;;;;;5104314;28;20488;-56
2023/01/09 07:39:21;;;;;;;29.50;13.82;;;5.60;99.90;;;;;;5091681;28;20024;-56
2023/01/09 07:41:46;;;;;;;23.65;14.75;;;5.60;99.90;;;;;;5105580;28;20105;-58
2023/01/09 07:44:12;;;;;;;23.95;13.05;;;5.60;99.90;;;;;;5091808;28;20383;-57
2023/01/09 07:46:38;;;;;;;21.75;12.82;;;5.60;99.90;;;;;;5106654;28;20511;-57
2023/01/09 07:49:04;;;;;;;23.38;13.52;;;5.60;99.90;;;;;;5091694;28;20027;-58
2023/01/09 07:51:29;;;;;;;20.65;12.50;;;5.60;99.90;;;;;;5107644;28;20040;-58
2023/01/09 07:53:55;;;;;;;26.45;12.95;;;5.60;99.90;;;;;;5090369;28;20012;-58
2023/01/09 07:56:21;;;;;;;22.33;12.93;;;5.70;99.90;;;;;;5109014;28;20503;-56
2023/01/09 07:58:47;;;;;;;19.67;12.02;;;5.70;99.90;;;;;;5091414;28;20024;-58
2023/01/09 08:01:12;;;;;;;22.67;12.25;;;5.70;99.90;;;;;;5111098;28;20530;-58
2023/01/09 08:03:38;;;;;;;20.52;11.52;;;5.70;99.90;;;;;;5089997;28;20043;-57
2023/01/09 08:06:03;;;;;;;20.02;11.90;;;5.80;99.90;;;;;;5107149;28;20102;-59
2023/01/09 08:08:29;;;;;;;21.02;12.38;;;5.80;99.90;;;;;;5089860;28;20495;-56
2023/01/09 08:10:54;;;;;;;22.25;13.00;;;5.80;99.90;;;;;;5110675;28;20109;-58
2023/01/09 08:13:20;;;;;;;23.15;12.90;;;5.90;99.90;;;;;;5089911;28;20021;-57
2023/01/09 08:15:46;;;;;;;18.15;11.40;;;5.90;99.90;;;;;;5110960;28;20028;-58
2023/01/09 08:18:11;;;;;;;20.02;11.60;;;5.90;99.90;;;;;;5089627;28;20047;-58
2023/01/09 08:20:36;;;;;;;19.52;11.88;;;5.90;99.90;;;;;;5110246;28;20034;-56
2023/01/09 08:23:02;;;;;;;20.73;11.68;;;6.00;99.90;;;;;;5089608;28;20149;-57
2023/01/09 08:25:27;;;;;;;22.70;13.45;;;6.00;99.90;;;;;;5110703;28;20053;-56
2023/01/09 08:27:53;;;;;;;20.90;11.90;;;6.00;99.90;;;;;;5094236;28;20717;-57
2023/01/09 08:30:18;;;;;;;19.33;11.05;;;6.00;99.90;;;;;;5111072;28;20023;-57
2023/01/09 08:32:52;;;;;;;22.55;12.52;;;6.10;99.90;;;;;;5089306;28;20038;-58
2023/01/09 08:35:18;;;;;;;21.50;13.15;;;6.10;99.90;;;;;;5070544;28;20108;-57
2023/01/09 08:37:47;;;;;;;20.75;11.73;;;6.10;99.90;;;;;;5096321;28;20107;-58
2023/01/09 08:40:13;;;;;;;16.92;10.98;;;6.10;99.90;;;;;;5110498;28;20670;-57
2023/01/09 08:48:07;;;;;;;18.45;10.27;;;6.20;99.90;;;;;;5083577;28;20038;-58
2023/01/09 08:50:33;;;;;;;21.92;12.50;;;6.20;99.90;;;;;;5109951;28;20027;-58
2023/01/09 08:52:58;;;;;;;19.98;11.80;;;6.30;99.90;;;;;;5089254;28;20048;-54
2023/01/09 08:55:24;;;;;;;20.23;11.45;;;6.30;99.90;;;;;;5108615;28;20028;-56
2023/01/09 08:57:51;;;;;;;17.42;10.32;;;6.30;99.90;;;;;;5089088;28;20063;-57
2023/01/09 09:00:18;;;;;;;21.02;10.98;;;6.30;99.90;;;;;;5109920;28;20031;-56
2023/01/09 09:02:44;;;;;;;21.17;12.32;;;6.30;99.90;;;;;;5088561;28;20726;-56
2023/01/09 09:05:09;;;;;;;21.88;11.00;;;6.40;99.90;;;;;;5097895;28;20055;-56
2023/01/09 09:07:35;;;;;;;18.85;11.15;;;6.40;99.90;;;;;;5088171;28;20021;-54
2023/01/09 09:10:00;;;;;;;22.92;11.85;;;6.50;99.90;;;;;;5109700;28;20077;-53
2023/01/09 09:12:26;;;;;;;21.67;11.60;;;6.50;99.90;;;;;;5088366;28;20043;-56
2023/01/09 09:17:36;;;;;;;19.48;11.50;;;6.60;99.90;;;;;;5078431;28;21021;-57
2023/01/09 09:20:01;;;;;;;21.63;11.35;;;6.60;99.90;;;;;;5109401;28;20024;-56
2023/01/09 09:22:27;;;;;;;18.30;11.30;;;6.60;99.90;;;;;;5097628;28;20067;-55
2023/01/09 09:24:52;;;;;;;19.75;11.43;;;6.60;99.90;;;;;;5090442;28;20051;-56
2023/01/09 09:27:18;;;;;;;22.33;11.48;;;6.60;99.90;;;;;;5098842;28;20487;-58
2023/01/09 09:29:44;;;;;;;19.23;11.05;;;6.60;99.90;;;;;;5089698;28;20555;-55
2023/01/09 09:32:09;;;;;;;20.40;10.60;;;6.70;99.90;;;;;;5099340;28;20120;-57
2023/01/09 09:34:35;;;;;;;19.42;10.95;;;6.70;99.90;;;;;;5089688;28;20012;-56
2023/01/09 09:37:00;;;;;;;20.60;11.52;;;6.70;99.90;;;;;;5101406;28;20031;-54
2023/01/09 09:39:26;;;;;;;19.50;10.70;;;6.80;99.90;;;;;;5089428;28;20051;-56
2023/01/09 09:45:12;;;;;;;;;;;6.80;99.90;;;;;;5090196;28;20027;-57
2023/01/09 09:47:47;;;;;;;17.10;10.50;;;6.80;99.90;;;;;;5069630;28;20323;-57
2023/01/09 09:50:16;;;;;;;;;;;6.90;99.90;;;;;;5110037;28;20019;-57
2023/01/09 09:52:56;;;;;;;19.08;10.55;;;6.80;99.90;;;;;;5088085;28;19966;-57
2023/01/09 09:55:31;;;;;;;19.08;10.48;;;6.90;99.90;;;;;;5069028;28;20041;-56
2023/01/09 09:58:01;;;;;;;20.25;10.77;;;6.90;99.90;;;;;;5080732;28;20036;-56
2023/01/09 10:00:27;;;;;;;17.98;10.98;;;6.90;99.90;;;;;;5109131;28;20067;-56
2023/01/09 10:03:02;;;;;;;17.13;9.60;;;6.90;99.90;;;;;;5087619;28;20404;-57
2023/01/09 10:05:33;;;;;;;16.13;9.95;;;7.00;99.90;;;;;;5096414;28;20480;-57
2023/01/09 10:08:04;;;;;;;21.40;11.32;;;7.00;99.90;;;;;;5080893;28;20070;-57
2023/01/09 10:10:45;;;;;;;19.20;11.93;;;7.00;99.90;;;;;;5068879;28;20035;-57
2023/01/09 10:16:30;;;;;;;19.80;11.13;;;7.10;99.90;;;;;;5068997;28;20059;-57
2023/01/09 10:19:26;;;;;;;19.75;11.10;;;7.10;99.90;;;;;;5068973;28;20062;-58
2023/01/09 10:22:04;;;;;;;20.80;11.20;;;7.10;99.90;;;;;;5071453;28;20063;-57
2023/01/09 10:24:40;;;;;;;21.08;11.10;;;7.10;99.90;;;;;;5088872;28;20035;-58
2023/01/09 10:27:28;;;;;;;18.35;10.93;;;7.20;99.90;;;;;;5073472;28;20020;-55
2023/01/09 10:30:11;;;;;;;20.77;11.05;;;7.20;99.90;;;;;;5089038;28;20039;-57
2023/01/09 10:32:49;;;;;;;19.95;11.63;;;7.20;99.90;;;;;;5077366;28;20043;-58
2023/01/09 10:35:18;;;;;;;18.15;11.18;;;7.20;99.90;;;;;;5068803;28;20028;-58
2023/01/09 10:37:46;;;;;;;18.75;11.45;;;7.20;99.90;;;;;;5094197;28;20499;-56
2023/01/09 10:40:35;;;;;;;16.27;10.32;;;7.20;99.90;;;;;;5108633;28;20024;-55
2023/01/09 10:43:11;;;;;;;15.88;9.88;;;7.30;99.90;;;;;;5083467;28;20050;-57
2023/01/09 10:46:00;;;;;;;20.55;10.77;;;7.30;99.90;;;;;;5072731;28;20093;-54
2023/01/09 10:48:36;;;;;;;15.85;9.25;;;7.40;99.90;;;;;;5088557;28;20043;-57
2023/01/09 10:51:18;;;;;;;15.95;8.82;;;7.40;99.90;;;;;;5072399;28;20400;-57
2023/01/09 10:53:49;;;;;;;17.50;11.20;;;7.40;99.90;;;;;;5091095;28;20089;-58
2023/01/09 10:56:35;;;;;;;16.40;9.48;;;7.40;99.90;;;;;;5072641;28;20477;-55
2023/01/09 10:59:01;;;;;;;16.20;9.40;;;7.50;99.90;;;;;;5072459;28;20073;-55
2023/01/09 11:01:31;;;;;;;17.40;9.82;;;7.60;99.90;;;;;;5108493;28;20035;-54
2023/01/09 11:04:01;;;;;;;16.90;9.57;;;7.60;99.90;;;;;;5092439;28;20483;-56
2023/01/09 11:06:43;;;;;;;19.55;9.63;;;7.60;99.90;;;;;;5109303;28;20410;-57
2023/01/09 11:09:08;;;;;;;13.75;8.40;;;7.70;99.90;;;;;;5092398;28;20085;-57
2023/01/09 11:11:36;;;;;;;15.82;8.73;;;7.80;99.90;;;;;;5107979;28;20039;-56
2023/01/09 11:14:17;;;;;;;14.32;8.13;;;7.80;99.90;;;;;;5092407;28;20582;-57
2023/01/09 11:17:00;;;;;;;17.00;8.10;;;7.80;99.90;;;;;;5106886;28;20028;-56
2023/01/09 11:19:26;;;;;;;13.57;7.93;;;7.90;99.90;;;;;;5092180;28;20020;-54
2023/01/09 11:22:07;;;;;;;15.27;8.25;;;7.90;99.90;;;;;;5105444;28;20028;-56
2023/01/09 11:24:33;;;;;;;15.60;8.45;;;7.90;99.90;;;;;;5091991;28;20095;-55
2023/01/09 11:27:22;;;;;;;12.93;8.23;;;8.00;99.90;;;;;;5104297;28;20448;-55
2023/01/09 11:30:13;;;;;;;10.73;7.20;;;8.10;99.90;;;;;;5092155;28;20063;-54
2023/01/09 11:32:40;;;;;;;11.75;7.10;;;8.20;99.90;;;;;;5080692;28;20739;-53
2023/01/09 11:35:13;;;;;;;12.02;7.55;;;8.20;99.90;;;;;;5111702;28;20030;-53
2023/01/09 11:37:39;;;;;;;12.95;7.75;;;8.30;99.90;;;;;;5080702;28;20492;-54
2023/01/09 11:40:14;;;;;;;12.05;7.18;;;8.40;99.90;;;;;;5111605;28;20024;-56
2023/01/09 11:42:52;;;;;;;10.50;6.75;;;8.50;99.90;;;;;;5080881;28;20055;-55
2023/01/09 11:45:20;;;;;;;10.45;6.22;;;8.50;99.90;;;;;;5071391;28;20588;-53
2023/01/09 11:47:46;;;;;;;10.95;6.70;;;8.60;99.90;;;;;;5097310;28;20086;-55
2023/01/09 11:50:20;;;;;;;13.50;7.90;;;8.60;99.90;;;;;;5111160;28;20351;-54
2023/01/09 11:53:06;;;;;;;11.05;6.70;;;8.60;99.90;;;;;;5089750;28;20500;-55
2023/01/09 11:55:31;;;;;;;11.90;6.93;;;8.60;99.90;;;;;;5070711;28;20490;-49
2023/01/09 11:57:57;;;;;;;10.15;6.97;;;8.60;99.90;;;;;;5095069;28;20032;-56
2023/01/09 12:00:26;;;;;;;10.77;7.20;;;8.50;99.90;;;;;;5111037;28;20131;-53
2023/01/09 12:03:24;;;;;;;13.52;7.68;;;8.60;99.90;;;;;;5089611;28;20035;-49
2023/01/09 12:06:12;;;;;;;10.60;6.30;;;8.60;99.90;;;;;;5091243;28;20032;-52
2023/01/09 12:09:01;;;;;;;9.65;5.75;;;8.60;99.90;;;;;;5088503;28;20024;-52
2023/01/09 12:11:45;;;;;;;8.98;5.60;;;8.50;99.90;;;;;;5070866;28;20258;-51
2023/01/09 12:14:50;;;;;;;9.88;5.70;;;8.50;99.90;;;;;;5111745;28;20027;-50
2023/01/09 12:17:38;;;;;;;11.40;5.93;;;8.40;99.90;;;;;;5076921;28;20055;-52
2023/01/09 12:20:32;;;;;;;10.48;6.05;;;8.40;99.90;;;;;;5110529;28;20519;-54
2023/01/09 12:23:24;;;;;;;9.23;6.10;;;8.40;99.90;;;;;;5082748;28;20031;-51
2023/01/09 12:26:06;;;;;;;8.35;4.95;;;8.50;99.90;;;;;;5111185;28;20124;-49
2023/01/09 12:28:46;;;;;;;8.77;5.13;;;8.60;99.90;;;;;;5097406;28;20096;-50
2023/01/09 12:31:36;;;;;;;10.00;5.22;;;8.70;99.90;;;;;;5070511;28;20581;-50
2023/01/09 12:34:33;;;;;;;7.75;4.93;;;8.90;99.90;;;;;;5070592;28;20067;-48
2023/01/09 12:37:35;;;;;;;5.82;4.35;;;9.00;99.90;;;;;;5079392;28;20027;-53
2023/01/09 12:40:36;;;;;;;8.45;3.72;;;9.00;99.90;;;;;;5070456;28;20032;-49
2023/01/09 12:43:36;;;;;;;7.55;4.57;;;9.00;99.90;;;;;;5089133;28;20501;-52
2023/01/09 12:46:18;;;;;;;6.00;3.75;;;9.00;99.90;;;;;;5070258;28;20024;-52
2023/01/09 12:49:17;;;;;;;9.35;3.53;;;9.00;99.90;;;;;;5088557;28;20028;-54
2023/01/09 12:51:52;;;;;;;4.30;3.10;;;8.90;99.90;;;;;;5071385;28;20064;-51
2023/01/09 12:54:43;;;;;;;3.65;2.50;;;8.90;99.90;;;;;;5089294;28;20028;-50
2023/01/09 12:57:23;;;;;;;4.10;2.80;;;8.80;99.90;;;;;;5075236;28;20024;-53
2023/01/09 13:00:06;;;;;;;6.03;3.10;;;8.80;99.90;;;;;;5090237;28;20039;-53
2023/01/09 13:02:42;;;;;;;4.93;2.72;;;8.70;99.90;;;;;;5078275;28;20024;-50
2023/01/09 13:05:25;;;;;;;3.88;2.65;;;8.70;99.90;;;;;;5077927;28;20019;-50
2023/01/09 13:07:58;;;;;;;6.15;2.72;;;8.70;99.90;;;;;;5095764;28;20138;-48
2023/01/09 13:10:32;;;;;;;4.65;2.70;;;8.70;99.90;;;;;;5069742;28;20388;-49
2023/01/09 13:13:05;;;;;;;3.55;2.35;;;8.70;99.90;;;;;;5081643;28;20117;-48
2023/01/09 13:16:00;;;;;;;3.22;2.00;;;8.70;99.90;;;;;;5069697;28;20388;-48